createdAt,value
2022-09-26T00:01:18.717Z,15.02
2022-09-26T00:03:47.630Z,10.90
2022-09-26T00:06:17.954Z,13.82
2022-09-26T00:08:46.583Z,18.35
2022-09-26T00:11:17.557Z,17.48
2022-09-26T00:13:44.597Z,16.88
2022-09-26T00:16:13.305Z,18.50
2022-09-26T00:18:40.440Z,15.52
2022-09-26T00:21:10.355Z,17.35
2022-09-26T00:23:37.783Z,90.00
2022-09-26T00:26:05.854Z,17.40
2022-09-26T00:28:33.173Z,20.75
2022-09-26T00:31:09.878Z,19.38
2022-09-26T00:33:37.006Z,20.65
2022-09-26T00:36:05.089Z,17.00
2022-09-26T00:38:31.991Z,18.85
2022-09-26T00:40:59.330Z,22.17
2022-09-26T00:43:30.991Z,21.88
2022-09-26T00:46:02.450Z,21.08
2022-09-26T00:48:30.303Z,20.38
2022-09-26T00:50:57.560Z,22.42
2022-09-26T00:53:30.590Z,15.75
2022-09-26T00:56:06.145Z,16.92
2022-09-26T00:58:39.036Z,20.98
2022-09-26T01:01:06.476Z,26.08
2022-09-26T01:03:35.141Z,23.77
2022-09-26T01:06:02.040Z,24.02
2022-09-26T01:08:33.369Z,21.80
2022-09-26T01:11:01.418Z,21.85
2022-09-26T01:13:28.832Z,22.33
2022-09-26T01:15:57.979Z,23.45
2022-09-26T01:18:26.626Z,27.17
2022-09-26T01:21:01.591Z,27.40
2022-09-26T01:23:40.228Z,20.30
2022-09-26T01:26:12.923Z,23.55
2022-09-26T01:28:59.239Z,23.35
2022-09-26T01:32:04.435Z,24.67
2022-09-26T01:34:50.842Z,33.08
2022-09-26T01:37:41.387Z,28.88
2022-09-26T01:40:27.568Z,16.08
2022-09-26T01:43:06.015Z,19.02
2022-09-26T01:45:45.295Z,13.93
2022-09-26T01:48:17.191Z,17.70
2022-09-26T01:50:54.000Z,23.65
2022-09-26T01:53:29.617Z,25.42
2022-09-26T01:56:06.759Z,26.42
2022-09-26T01:58:45.161Z,28.60
2022-09-26T02:01:14.746Z,35.05
2022-09-26T02:03:47.024Z,22.75
2022-09-26T02:06:24.403Z,25.73
2022-09-26T02:08:56.878Z,24.08
2022-09-26T02:11:25.576Z,28.52
2022-09-26T02:13:59.706Z,27.05
2022-09-26T02:16:37.612Z,26.20
2022-09-26T02:19:10.424Z,26.90
2022-09-26T02:21:37.710Z,29.80
2022-09-26T02:24:04.746Z,30.00
2022-09-26T02:26:32.207Z,24.75
2022-09-26T02:29:01.603Z,25.65
2022-09-26T02:31:32.016Z,27.23
2022-09-26T02:33:59.039Z,26.38
2022-09-26T02:36:27.703Z,29.60
2022-09-26T02:38:54.585Z,28.88
2022-09-26T02:41:52.841Z,25.63
2022-09-26T02:44:43.678Z,29.10
2022-09-26T02:47:35.536Z,27.83
2022-09-26T02:50:51.316Z,28.38
2022-09-26T02:53:22.298Z,26.30
2022-09-26T02:55:55.555Z,26.83
2022-09-26T02:58:42.485Z,24.90
2022-09-26T03:01:31.508Z,25.80
2022-09-26T03:04:36.704Z,26.50
2022-09-26T03:07:07.181Z,24.33
2022-09-26T03:09:35.018Z,29.50
2022-09-26T03:12:03.875Z,26.90
2022-09-26T03:14:32.640Z,30.17
2022-09-26T03:17:00.978Z,28.75
2022-09-26T03:19:32.320Z,27.90
2022-09-26T03:22:00.070Z,30.70
2022-09-26T03:24:27.044Z,28.83
2022-09-26T03:26:56.532Z,25.58
2022-09-26T03:29:25.488Z,26.17
2022-09-26T03:31:53.220Z,26.67
2022-09-26T03:34:20.222Z,31.80
2022-09-26T03:36:49.371Z,26.38
2022-09-26T03:39:17.489Z,24.88
2022-09-26T03:41:57.610Z,31.20
2022-09-26T03:44:30.097Z,25.70
2022-09-26T03:47:12.959Z,28.17
2022-09-26T03:49:42.195Z,30.35
2022-09-26T03:52:11.850Z,26.65
2022-09-26T03:54:39.776Z,28.70
2022-09-26T03:57:07.347Z,30.67
2022-09-26T03:59:38.968Z,26.77
2022-09-26T04:02:06.856Z,27.63
2022-09-26T04:04:38.694Z,30.42
2022-09-26T04:07:05.749Z,27.95
2022-09-26T04:09:32.895Z,28.48
2022-09-26T04:12:01.167Z,27.95
2022-09-26T04:14:28.290Z,31.50
2022-09-26T04:16:59.395Z,27.80
2022-09-26T04:19:29.822Z,33.63
2022-09-26T04:21:58.982Z,67.68
2022-09-26T04:24:26.270Z,25.38
2022-09-26T04:26:54.104Z,25.30
2022-09-26T04:29:21.047Z,24.40
2022-09-26T04:31:57.361Z,26.73
2022-09-26T04:34:31.314Z,25.27
2022-09-26T04:37:00.394Z,23.10
2022-09-26T04:39:27.254Z,22.52
2022-09-26T04:41:54.561Z,31.10
2022-09-26T04:44:22.003Z,28.45
2022-09-26T04:46:48.957Z,19.83
2022-09-26T04:49:19.512Z,29.25
2022-09-26T04:51:47.850Z,28.90
2022-09-26T04:54:16.623Z,26.25
2022-09-26T04:56:43.946Z,33.70
2022-09-26T04:59:11.217Z,19.20
2022-09-26T05:01:58.591Z,19.05
2022-09-26T05:04:33.441Z,23.45
2022-09-26T05:07:00.496Z,16.73
2022-09-26T05:09:35.552Z,18.77
2022-09-26T05:12:06.936Z,32.90
2022-09-26T05:14:35.898Z,20.45
2022-09-26T05:17:04.663Z,17.55
2022-09-26T05:19:32.990Z,15.70
2022-09-26T05:22:19.076Z,19.45
2022-09-26T05:25:04.869Z,15.85
2022-09-26T05:27:32.805Z,22.83
2022-09-26T05:30:00.913Z,30.63
2022-09-26T05:32:29.324Z,22.00
2022-09-26T05:34:57.729Z,35.75
2022-09-26T05:37:26.985Z,23.20
2022-09-26T05:40:12.641Z,30.80
2022-09-26T05:42:44.992Z,30.42
2022-09-26T05:45:13.814Z,37.53
2022-09-26T05:47:42.248Z,23.58
2022-09-26T05:50:10.370Z,33.75
2022-09-26T05:52:39.483Z,27.48
2022-09-26T05:55:08.621Z,24.55
2022-09-26T05:57:59.021Z,33.33
2022-09-26T06:00:38.761Z,27.08
2022-09-26T06:03:06.030Z,28.13
2022-09-26T06:05:45.450Z,26.98
2022-09-26T06:08:16.105Z,28.20
2022-09-26T06:10:55.465Z,32.45
2022-09-26T06:13:23.967Z,32.50
2022-09-26T06:15:52.217Z,35.97
2022-09-26T06:18:19.418Z,37.92
2022-09-26T06:20:46.322Z,34.20
2022-09-26T06:23:14.474Z,32.85
2022-09-26T06:25:45.569Z,34.67
2022-09-26T06:28:13.163Z,31.33
2022-09-26T06:30:40.217Z,31.95
2022-09-26T06:33:12.990Z,33.08
2022-09-26T06:36:11.083Z,29.17
2022-09-26T06:38:38.544Z,28.85
2022-09-26T06:41:09.538Z,31.42
2022-09-26T06:43:36.391Z,34.10
2022-09-26T06:46:09.609Z,33.72
2022-09-26T06:48:55.328Z,29.30
2022-09-26T06:51:41.955Z,30.38
2022-09-26T06:54:10.226Z,31.83
2022-09-26T06:56:38.378Z,28.15
2022-09-26T06:59:05.539Z,29.00
2022-09-26T07:01:34.819Z,28.38
2022-09-26T07:04:10.601Z,32.75
2022-09-26T07:06:43.828Z,30.17
2022-09-26T07:09:12.886Z,35.30
2022-09-26T07:12:13.482Z,29.20
2022-09-26T07:14:38.019Z,32.53
2022-09-26T07:17:42.142Z,30.08
2022-09-26T07:20:27.225Z,31.65
2022-09-26T07:23:11.626Z,31.98
2022-09-26T07:25:45.096Z,35.78
2022-09-26T07:28:12.752Z,33.85
2022-09-26T07:30:58.874Z,31.17
2022-09-26T07:33:44.554Z,30.67
2022-09-26T07:36:12.035Z,34.15
2022-09-26T07:38:39.869Z,33.67
2022-09-26T07:41:10.956Z,31.20
2022-09-26T07:46:45.230Z,32.35
2022-09-26T07:49:30.704Z,29.55
2022-09-26T07:52:11.270Z,29.05
2022-09-26T07:54:47.004Z,33.80
2022-09-26T07:57:35.416Z,32.75
2022-09-26T08:00:21.471Z,32.70
2022-09-26T08:03:05.248Z,33.53
2022-09-26T08:05:36.500Z,35.10
2022-09-26T08:08:04.940Z,34.58
2022-09-26T08:11:04.594Z,36.80
2022-09-26T08:13:50.092Z,36.47
2022-09-26T08:16:23.150Z,32.10
2022-09-26T08:18:54.112Z,32.42
2022-09-26T08:21:22.338Z,30.65
2022-09-26T08:23:51.646Z,36.65
2022-09-26T08:26:43.878Z,34.15
2022-09-26T08:29:19.107Z,37.65
2022-09-26T08:31:50.371Z,35.40
2022-09-26T08:34:22.691Z,36.13
2022-09-26T08:37:18.297Z,34.53
2022-09-26T08:40:03.762Z,37.35
2022-09-26T08:43:07.380Z,36.38
2022-09-26T08:46:11.336Z,36.70
2022-09-26T08:49:23.986Z,37.30
2022-09-26T08:51:57.128Z,36.83
2022-09-26T08:54:40.054Z,35.92
2022-09-26T08:57:22.706Z,38.47
2022-09-26T08:59:50.321Z,37.17
2022-09-26T09:02:33.212Z,38.55
2022-09-26T09:05:27.312Z,34.20
2022-09-26T09:07:56.536Z,27.77
2022-09-26T09:10:31.665Z,26.60
2022-09-26T09:13:31.733Z,25.08
2022-09-26T09:16:39.611Z,20.80
2022-09-26T09:19:56.291Z,27.75
2022-09-26T09:23:23.778Z,23.90
2022-09-26T09:29:10.376Z,24.23
2022-09-26T09:31:42.094Z,18.52
2022-09-26T09:34:30.053Z,17.15
2022-09-26T09:37:21.817Z,18.67
2022-09-26T09:40:18.770Z,18.45
2022-09-26T09:43:05.490Z,19.25
2022-09-26T09:45:45.334Z,18.60
2022-09-26T09:48:15.983Z,15.85
2022-09-26T09:50:50.558Z,15.80
2022-09-26T09:53:26.699Z,13.98
2022-09-26T09:56:21.451Z,15.18
2022-09-26T09:59:03.819Z,15.85
2022-09-26T10:01:41.589Z,15.45
2022-09-26T10:04:32.099Z,8.52
2022-09-26T10:06:59.858Z,10.07
2022-09-26T10:09:35.827Z,12.30
2022-09-26T10:12:29.532Z,10.50
2022-09-26T10:15:20.046Z,8.02
2022-09-26T10:18:25.759Z,7.25
2022-09-26T10:21:16.406Z,9.40
2022-09-26T10:23:47.346Z,8.60
2022-09-26T10:26:40.534Z,18.73
2022-09-26T10:29:34.574Z,6.60
2022-09-26T10:32:02.585Z,6.65
2022-09-26T10:34:33.083Z,8.25
2022-09-26T10:37:22.325Z,6.40
2022-09-26T10:40:15.994Z,6.07
2022-09-26T10:42:47.166Z,8.18
2022-09-26T10:45:18.052Z,7.80
2022-09-26T10:48:06.227Z,11.80
2022-09-26T10:51:01.896Z,7.60
2022-09-26T10:54:01.771Z,9.45
2022-09-26T10:56:31.030Z,8.88
2022-09-26T10:59:06.080Z,7.72
2022-09-26T11:01:38.416Z,7.38
2022-09-26T11:04:40.252Z,8.60
2022-09-26T11:07:29.230Z,11.18
2022-09-26T11:10:31.561Z,9.73
2022-09-26T11:13:24.138Z,11.68
2022-09-26T11:16:12.053Z,10.13
2022-09-26T11:19:02.225Z,11.93
2022-09-26T11:21:54.354Z,13.80
2022-09-26T11:24:45.969Z,15.65
2022-09-26T11:27:19.498Z,14.32
2022-09-26T11:30:02.252Z,17.20
2022-09-26T11:32:32.395Z,15.30
2022-09-26T11:35:34.815Z,18.33
2022-09-26T11:38:26.445Z,15.75
2022-09-26T11:41:36.375Z,15.38
2022-09-26T11:44:22.439Z,11.98
2022-09-26T11:47:46.675Z,15.45
2022-09-26T11:50:24.427Z,12.45
2022-09-26T11:53:17.380Z,11.93
2022-09-26T11:55:55.084Z,9.98
2022-09-26T11:58:50.418Z,9.85
2022-09-26T12:01:27.354Z,14.18
2022-09-26T12:04:24.743Z,14.43
2022-09-26T12:06:56.205Z,9.90
2022-09-26T12:09:41.684Z,14.07
2022-09-26T12:12:15.277Z,11.13
2022-09-26T12:15:27.425Z,11.27
2022-09-26T12:18:13.437Z,13.00
2022-09-26T12:21:02.163Z,11.05
2022-09-26T12:23:58.899Z,11.65
2022-09-26T12:26:45.224Z,11.77
2022-09-26T12:29:32.847Z,14.48
2022-09-26T12:32:35.212Z,12.70
2022-09-26T12:35:18.881Z,12.27
2022-09-26T12:37:58.528Z,11.52
2022-09-26T12:40:34.595Z,11.75
2022-09-26T12:43:16.920Z,13.80
2022-09-26T12:46:15.084Z,12.95
2022-09-26T12:48:51.815Z,14.30
2022-09-26T12:51:28.789Z,16.42
2022-09-26T12:54:05.920Z,16.58
2022-09-26T12:56:54.924Z,16.10
2022-09-26T12:59:43.397Z,17.55
2022-09-26T13:02:55.897Z,15.40
2022-09-26T13:05:45.179Z,17.63
2022-09-26T13:08:35.065Z,15.85
2022-09-26T13:11:27.346Z,17.65
2022-09-26T13:14:09.761Z,16.95
2022-09-26T13:17:10.367Z,17.67
2022-09-26T13:19:59.395Z,19.83
2022-09-26T13:23:13.134Z,22.83
2022-09-26T13:26:19.218Z,22.15
2022-09-26T13:29:16.667Z,20.02
2022-09-26T13:31:48.374Z,21.92
2022-09-26T13:34:24.049Z,22.73
2022-09-26T13:36:51.350Z,19.08
2022-09-26T13:39:53.907Z,23.67
2022-09-26T13:42:31.860Z,22.10
2022-09-26T13:45:09.630Z,22.88
2022-09-26T13:47:49.238Z,25.33
2022-09-26T13:50:27.115Z,24.40
2022-09-26T13:53:00.944Z,25.52
2022-09-26T13:55:30.042Z,25.10
2022-09-26T13:58:03.155Z,26.27
2022-09-26T14:00:30.506Z,21.88
2022-09-26T14:03:16.700Z,26.00
2022-09-26T14:05:44.281Z,24.83
2022-09-26T14:08:48.611Z,24.05
2022-09-26T14:11:24.621Z,25.20
2022-09-26T14:14:16.535Z,23.90
2022-09-26T14:16:46.922Z,26.15
2022-09-26T14:19:31.140Z,27.33
2022-09-26T14:22:18.457Z,23.38
2022-09-26T14:24:46.269Z,25.02
2022-09-26T14:27:16.971Z,22.65
2022-09-26T14:29:54.137Z,25.48
2022-09-26T14:32:45.389Z,25.85
2022-09-26T14:35:19.097Z,29.80
2022-09-26T14:37:49.571Z,45.22
2022-09-26T14:40:20.917Z,40.13
2022-09-26T14:42:53.994Z,21.25
2022-09-26T14:45:26.620Z,23.85
2022-09-26T14:47:56.807Z,22.73
2022-09-26T14:50:35.594Z,21.25
2022-09-26T14:53:11.503Z,21.83
2022-09-26T14:55:53.313Z,21.77
2022-09-26T14:58:38.596Z,20.30
2022-09-26T15:01:15.207Z,61.55
2022-09-26T15:03:42.568Z,28.40
2022-09-26T15:06:11.987Z,25.42
2022-09-26T15:08:39.667Z,20.05
2022-09-26T15:11:07.095Z,20.92
2022-09-26T15:13:38.938Z,152.18
2022-09-26T15:16:14.724Z,114.93
2022-09-26T15:19:00.649Z,39.95
2022-09-26T15:21:34.148Z,47.20
2022-09-26T15:24:04.762Z,31.77
2022-09-26T15:26:35.029Z,21.63
2022-09-26T15:29:04.899Z,104.20
2022-09-26T15:31:39.679Z,42.90
2022-09-26T15:34:13.186Z,50.40
2022-09-26T15:36:41.192Z,85.40
2022-09-26T15:39:30.615Z,50.03
2022-09-26T15:42:41.667Z,72.15
2022-09-26T15:45:47.077Z,69.57
2022-09-26T15:48:21.148Z,75.10
2022-09-26T15:50:50.587Z,52.53
2022-09-26T15:53:29.228Z,214.80
2022-09-26T15:56:04.858Z,70.55
2022-09-26T15:58:37.569Z,64.03
2022-09-26T16:01:05.140Z,56.00
2022-09-26T16:04:08.241Z,34.38
2022-09-26T16:06:38.199Z,22.85
2022-09-26T16:09:08.180Z,67.07
2022-09-26T16:11:43.922Z,64.97
2022-09-26T16:14:25.644Z,90.00
2022-09-26T16:16:55.608Z,77.05
2022-09-26T16:19:36.114Z,47.58
2022-09-26T16:22:36.349Z,26.52
2022-09-26T16:25:15.664Z,20.17
2022-09-26T16:27:43.249Z,29.17
2022-09-26T16:30:25.725Z,29.42
2022-09-26T16:33:13.025Z,39.28
2022-09-26T16:35:47.847Z,28.13
2022-09-26T16:38:34.318Z,20.77
2022-09-26T16:41:49.006Z,26.02
2022-09-26T16:44:28.800Z,23.98
2022-09-26T16:47:03.356Z,33.15
2022-09-26T16:49:47.420Z,71.00
2022-09-26T16:52:27.383Z,154.02
2022-09-26T16:54:56.225Z,124.55
2022-09-26T16:57:35.782Z,41.58
2022-09-26T17:00:26.816Z,43.40
2022-09-26T17:02:54.003Z,561.35
2022-09-26T17:05:21.818Z,379.67
2022-09-26T17:07:49.732Z,74.00
2022-09-26T17:10:18.385Z,136.93
2022-09-26T17:12:51.561Z,66.65
2022-09-26T17:15:25.009Z,328.90
2022-09-26T17:17:53.820Z,138.18
2022-09-26T17:20:22.212Z,47.83
2022-09-26T17:22:49.495Z,73.82
2022-09-26T17:25:16.582Z,43.75
2022-09-26T17:27:43.696Z,296.15
2022-09-26T17:30:19.861Z,349.52
2022-09-26T17:32:50.013Z,230.10
2022-09-26T17:35:26.992Z,60.53
2022-09-26T17:37:54.813Z,268.42
2022-09-26T17:40:30.313Z,535.90
2022-09-26T17:43:00.310Z,260.83
2022-09-26T17:45:30.040Z,32.45
2022-09-26T17:47:58.765Z,58.83
2022-09-26T17:50:29.380Z,219.73
2022-09-26T17:52:58.070Z,239.68
2022-09-26T17:55:25.232Z,349.42
2022-09-26T17:57:52.334Z,357.02
2022-09-26T18:00:19.637Z,377.27
2022-09-26T18:02:59.708Z,296.77
2022-09-26T18:05:30.688Z,649.80
2022-09-26T18:08:01.712Z,879.70
2022-09-26T18:10:31.623Z,605.45
2022-09-26T18:13:00.372Z,268.50
2022-09-26T18:15:27.980Z,63.63
2022-09-26T18:17:55.407Z,32.08
2022-09-26T18:20:34.406Z,42.47
2022-09-26T18:23:01.663Z,254.45
2022-09-26T18:25:28.629Z,760.83
2022-09-26T18:27:56.767Z,478.50
2022-09-26T18:30:24.228Z,602.78
2022-09-26T18:32:55.012Z,339.02
2022-09-26T18:35:27.646Z,278.35
2022-09-26T18:37:56.110Z,667.17
2022-09-26T18:40:24.913Z,541.40
2022-09-26T18:42:53.507Z,495.88
2022-09-26T18:45:26.333Z,460.50
2022-09-26T18:47:54.492Z,318.50
2022-09-26T18:50:23.100Z,290.55
2022-09-26T18:52:50.661Z,205.57
2022-09-26T18:55:38.844Z,131.13
2022-09-26T18:58:25.318Z,170.50
2022-09-26T19:00:56.590Z,283.88
2022-09-26T19:03:24.899Z,195.90
2022-09-26T19:05:53.374Z,126.32
2022-09-26T19:08:41.229Z,123.57
2022-09-26T19:11:22.788Z,183.07
2022-09-26T19:13:57.336Z,157.35
2022-09-26T19:16:25.622Z,82.20
2022-09-26T19:18:52.876Z,33.03
2022-09-26T19:21:50.083Z,37.55
2022-09-26T19:24:35.398Z,24.73
2022-09-26T19:27:06.908Z,25.58
2022-09-26T19:29:38.433Z,24.17
2022-09-26T19:32:06.126Z,23.80
2022-09-26T19:34:33.487Z,29.98
2022-09-26T19:37:02.353Z,31.77
2022-09-26T19:39:29.502Z,20.90
2022-09-26T19:41:56.687Z,18.40
2022-09-26T19:44:24.414Z,15.95
2022-09-26T19:46:51.391Z,19.40
2022-09-26T19:49:19.912Z,17.73
2022-09-26T19:51:47.136Z,16.17
2022-09-26T19:54:17.587Z,18.08
2022-09-26T19:56:45.721Z,18.00
2022-09-26T19:59:13.673Z,24.63
2022-09-26T20:01:42.240Z,54.63
2022-09-26T20:04:14.828Z,207.63
2022-09-26T20:06:42.324Z,200.95
2022-09-26T20:09:19.656Z,95.05
2022-09-26T20:11:46.761Z,81.20
2022-09-26T20:14:25.450Z,56.50
2022-09-26T20:16:58.317Z,25.55
2022-09-26T20:19:35.438Z,25.63
2022-09-26T20:22:05.349Z,75.28
2022-09-26T20:24:33.525Z,52.90
2022-09-26T20:27:02.176Z,41.65
2022-09-26T20:29:29.770Z,33.58
2022-09-26T20:31:56.989Z,28.13
2022-09-26T20:34:24.959Z,25.92
2022-09-26T20:36:51.896Z,23.60
2022-09-26T20:39:24.908Z,21.15
2022-09-26T20:41:52.598Z,22.45
2022-09-26T20:44:27.382Z,20.00
2022-09-26T20:46:58.263Z,22.52
2022-09-26T20:49:35.675Z,24.45
2022-09-26T20:52:03.532Z,22.60
2022-09-26T20:54:32.064Z,19.55
2022-09-26T20:56:59.324Z,21.50
2022-09-26T20:59:26.534Z,21.40
2022-09-26T21:01:54.534Z,22.38
2022-09-26T21:04:28.617Z,28.73
2022-09-26T21:06:55.875Z,34.40
2022-09-26T21:09:22.727Z,50.58
2022-09-26T21:11:49.700Z,51.33
2022-09-26T21:14:17.403Z,43.05
2022-09-26T21:16:53.677Z,25.65
2022-09-26T21:19:24.795Z,24.58
2022-09-26T21:22:02.793Z,24.33
2022-09-26T21:24:40.685Z,23.92
2022-09-26T21:27:11.570Z,22.42
2022-09-26T21:29:39.994Z,71.50
2022-09-26T21:32:14.374Z,281.63
2022-09-26T21:34:41.534Z,233.95
2022-09-26T21:37:09.934Z,76.05
2022-09-26T21:39:38.970Z,32.50
2022-09-26T21:42:06.630Z,26.83
2022-09-26T21:44:47.314Z,26.85
2022-09-26T21:47:15.300Z,31.05
2022-09-26T21:49:46.431Z,30.70
2022-09-26T21:52:26.377Z,28.40
2022-09-26T21:54:53.624Z,52.35
2022-09-26T21:57:23.873Z,40.03
2022-09-26T21:59:53.005Z,41.13
2022-09-26T22:02:20.615Z,47.17
2022-09-26T22:04:48.036Z,85.25
2022-09-26T22:07:14.983Z,48.53
2022-09-26T22:09:42.230Z,51.33
2022-09-26T22:12:09.313Z,38.95
2022-09-26T22:14:36.333Z,25.33
2022-09-26T22:17:03.565Z,24.33
2022-09-26T22:19:33.524Z,20.75
2022-09-26T22:22:01.427Z,21.90
2022-09-26T22:24:28.710Z,19.90
2022-09-26T22:26:55.629Z,28.23
2022-09-26T22:29:22.543Z,34.72
2022-09-26T22:31:50.630Z,27.13
2022-09-26T22:34:17.473Z,29.33
2022-09-26T22:36:44.400Z,18.02
2022-09-26T22:39:11.660Z,15.60
2022-09-26T22:41:38.587Z,25.42
2022-09-26T22:44:05.655Z,26.38
2022-09-26T22:46:34.385Z,22.75
2022-09-26T22:49:02.085Z,31.58
2022-09-26T22:51:29.084Z,22.77
2022-09-26T22:53:56.180Z,23.45
2022-09-26T22:56:23.227Z,16.55
2022-09-26T22:58:51.738Z,18.38
2022-09-26T23:01:25.524Z,20.42
2022-09-26T23:03:53.135Z,15.75
2022-09-26T23:06:21.592Z,15.15
2022-09-26T23:08:48.926Z,12.30
2022-09-26T23:11:18.378Z,33.05
2022-09-26T23:13:46.687Z,15.50
2022-09-26T23:16:17.274Z,16.42
2022-09-26T23:18:44.951Z,13.00
2022-09-26T23:21:14.849Z,14.63
2022-09-26T23:23:43.278Z,11.07
2022-09-26T23:26:30.072Z,12.07
2022-09-26T23:28:58.276Z,21.27
2022-09-26T23:31:26.721Z,22.83
2022-09-26T23:33:54.334Z,18.88
2022-09-26T23:36:22.063Z,15.77
2022-09-26T23:38:49.968Z,14.10
2022-09-26T23:41:17.057Z,19.90
2022-09-26T23:43:46.249Z,15.00
2022-09-26T23:46:13.418Z,15.20
2022-09-26T23:48:40.721Z,19.52
2022-09-26T23:51:08.544Z,70.07
2022-09-26T23:53:35.529Z,21.73
2022-09-26T23:56:05.956Z,38.03
2022-09-26T23:58:33.318Z,14.82
